createdAt,value
2019-04-04T00:00:02.927Z,5.62
2019-04-04T00:10:04.001Z,5.45
2019-04-04T00:20:02.370Z,5.35
2019-04-04T00:30:03.689Z,5.21
2019-04-04T00:40:02.286Z,5.10
2019-04-04T00:50:05.878Z,5.02
2019-04-04T01:00:02.952Z,4.96
2019-04-04T01:10:02.713Z,4.91
2019-04-04T01:20:02.636Z,4.77
2019-04-04T01:30:03.228Z,4.64
2019-04-04T01:40:03.361Z,4.56
2019-04-04T01:50:03.094Z,4.39
2019-04-04T02:00:03.087Z,4.24
2019-04-04T02:10:03.150Z,4.09
2019-04-04T02:20:02.734Z,4.07
2019-04-04T02:30:02.766Z,3.63
2019-04-04T02:40:02.577Z,3.45
2019-04-04T02:50:02.368Z,3.34
2019-04-04T03:00:03.097Z,3.42
2019-04-04T03:10:02.777Z,3.61
2019-04-04T03:20:02.879Z,3.85
2019-04-04T03:30:03.212Z,4.02
2019-04-04T03:40:03.263Z,4.01
2019-04-04T03:50:02.890Z,4.13
2019-04-04T04:00:06.937Z,4.10
2019-04-04T04:10:02.960Z,4.09
2019-04-04T04:20:03.961Z,4.18
2019-04-04T04:30:05.900Z,4.20
2019-04-04T04:40:02.926Z,4.24
2019-04-04T04:50:02.538Z,4.33
2019-04-04T05:00:03.600Z,4.30
2019-04-04T05:10:02.100Z,4.24
2019-04-04T05:20:02.902Z,4.23
2019-04-04T05:30:03.127Z,4.27
2019-04-04T05:40:02.745Z,4.39
2019-04-04T05:50:02.294Z,4.41
2019-04-04T06:00:02.817Z,4.37
2019-04-04T06:10:02.835Z,4.44
2019-04-04T06:20:02.502Z,4.83
2019-04-04T06:30:03.608Z,5.15
2019-04-04T06:40:02.423Z,5.80
2019-04-04T06:50:02.742Z,5.80
2019-04-04T07:00:03.343Z,5.99
2019-04-04T07:10:03.025Z,6.86
2019-04-04T07:20:02.634Z,6.94
2019-04-04T07:30:03.389Z,8.36
2019-04-04T07:40:03.289Z,8.76
2019-04-04T07:50:02.668Z,9.54
2019-04-04T08:00:03.462Z,10.09
2019-04-04T08:10:02.928Z,10.71
2019-04-04T08:20:02.852Z,11.24
2019-04-04T08:30:02.991Z,11.73
2019-04-04T08:40:02.460Z,13.55
2019-04-04T08:50:02.825Z,13.62
2019-04-04T09:00:03.670Z,14.13
2019-04-04T09:10:02.647Z,14.93
2019-04-04T09:20:03.173Z,14.32
2019-04-04T09:30:03.350Z,12.68
2019-04-04T09:40:02.695Z,13.08
2019-04-04T09:50:02.217Z,13.20
2019-04-04T10:00:06.428Z,12.90
2019-04-04T10:10:02.636Z,12.51
2019-04-04T10:20:02.579Z,12.05
2019-04-04T10:30:05.083Z,11.96
2019-04-04T10:40:02.943Z,11.75
2019-04-04T10:50:02.740Z,12.28
2019-04-04T11:00:03.164Z,11.99
2019-04-04T11:10:02.986Z,11.79
2019-04-04T11:20:02.949Z,12.20
2019-04-04T11:30:03.074Z,11.79
2019-04-04T11:40:03.033Z,12.25
2019-04-04T11:50:02.623Z,12.89
2019-04-04T12:00:03.372Z,12.72
2019-04-04T12:10:07.543Z,12.90
2019-04-04T12:20:03.170Z,12.69
2019-04-04T12:30:03.316Z,12.53
2019-04-04T12:40:03.004Z,13.32
2019-04-04T12:50:03.092Z,13.55
2019-04-04T13:00:02.847Z,13.73
2019-04-04T13:10:11.220Z,13.44
2019-04-04T13:20:03.006Z,13.16
2019-04-04T13:30:04.857Z,13.24
2019-04-04T13:40:02.290Z,13.01
2019-04-04T13:50:03.158Z,12.53
2019-04-04T14:00:03.654Z,11.55
2019-04-04T14:10:02.887Z,11.01
2019-04-04T14:20:02.297Z,11.12
2019-04-04T14:30:03.776Z,10.01
2019-04-04T14:40:02.392Z,9.52
2019-04-04T14:50:04.680Z,9.03
2019-04-04T15:00:03.632Z,8.90
2019-04-04T15:10:02.842Z,8.77
2019-04-04T15:20:02.569Z,8.74
2019-04-04T15:30:04.092Z,8.31
2019-04-04T15:40:02.570Z,8.34
2019-04-04T15:50:03.068Z,8.36
2019-04-04T16:00:02.650Z,8.14
2019-04-04T16:10:02.293Z,7.69
2019-04-04T16:20:02.060Z,7.57
2019-04-04T16:30:03.357Z,7.39
2019-04-04T16:40:08.512Z,7.12
2019-04-04T16:50:03.549Z,7.15
2019-04-04T17:00:03.528Z,7.20
2019-04-04T17:10:02.410Z,7.06
2019-04-04T17:20:02.191Z,6.97
2019-04-04T17:30:03.766Z,6.93
2019-04-04T17:40:02.445Z,6.72
2019-04-04T17:50:03.173Z,6.55
2019-04-04T18:00:03.315Z,6.40
2019-04-04T18:10:02.852Z,6.20
2019-04-04T18:20:03.224Z,6.16
2019-04-04T18:30:03.414Z,6.13
2019-04-04T18:40:02.269Z,6.10
2019-04-04T18:50:03.246Z,6.16
2019-04-04T19:00:03.347Z,5.95
2019-04-04T19:10:02.592Z,5.93
2019-04-04T19:20:02.255Z,5.72
2019-04-04T19:30:03.683Z,5.64
2019-04-04T19:40:02.735Z,5.58
2019-04-04T19:50:03.022Z,5.54
2019-04-04T20:00:04.203Z,5.52
2019-04-04T20:10:03.002Z,5.42
2019-04-04T20:20:02.908Z,5.42
2019-04-04T20:30:03.498Z,5.30
2019-04-04T20:40:02.820Z,5.24
2019-04-04T20:50:02.168Z,5.17
2019-04-04T21:00:02.629Z,5.22
2019-04-04T21:10:02.644Z,5.06
2019-04-04T21:20:03.133Z,5.07
2019-04-04T21:30:02.972Z,5.13
2019-04-04T21:40:03.150Z,5.09
2019-04-04T21:50:02.101Z,5.11
2019-04-04T22:00:03.554Z,5.05
2019-04-04T22:10:02.472Z,5.05
2019-04-04T22:20:02.651Z,4.95
2019-04-04T22:30:03.605Z,4.95
2019-04-04T22:40:02.210Z,4.94
2019-04-04T22:50:02.681Z,4.97
2019-04-04T23:00:03.322Z,4.91
2019-04-04T23:10:02.243Z,4.91
2019-04-04T23:20:03.044Z,4.83
2019-04-04T23:30:03.471Z,4.73
2019-04-04T23:40:03.310Z,4.67
2019-04-04T23:50:02.741Z,4.66
